Time;durP1;ratioP1;P1;durP2;ratioP2;P2;SDS_P1;SDS_P2;PMS_P1;PMS_P2;Temp;Humidity;BMP_temperature;BMP_pressure;BME280_temperature;BME280_humidity;BME280_pressure;Samples;Min_cycle;Max_cycle;Signal;HPM_P1;HPM_P2
2022/05/05 00:02:07;;;;;;;21.67;19.73;;;11.40;99.90;;;12.30;100.00;98049.28;5266488;28;20644;-60
2022/05/05 00:04:40;;;;;;;22.33;20.27;;;11.40;99.90;;;12.28;100.00;98058.59;5268501;28;20203;-61
2022/05/05 00:07:15;;;;;;;23.90;21.63;;;11.40;99.90;;;12.25;100.00;98055.88;5266326;28;20228;-61
2022/05/05 00:09:48;;;;;;;24.02;21.83;;;11.50;99.90;;;12.28;100.00;98053.47;5267922;28;20231;-61
2022/05/05 00:15:14;;;;;;;22.02;20.10;;;11.40;99.90;;;12.23;100.00;98055.78;5265414;28;20716;-62
2022/05/05 00:17:47;;;;;;;24.45;22.17;;;11.40;99.90;;;12.27;100.00;98052.56;5266881;28;20781;-61
2022/05/05 00:20:20;;;;;;;24.65;22.40;;;11.40;99.90;;;12.30;100.00;98057.84;5265763;28;20207;-62
2022/05/05 00:22:55;;;;;;;23.40;21.10;;;11.40;99.90;;;12.26;100.00;98055.94;5266143;28;20253;-61
2022/05/05 00:25:28;;;;;;;23.25;20.17;;;11.40;99.90;;;12.09;100.00;98060.16;5266477;28;20302;-61
2022/05/05 00:28:01;;;;;;;21.88;19.70;;;11.30;99.90;;;12.14;100.00;98051.03;5267053;28;20216;-62
2022/05/05 00:30:34;;;;;;;20.33;18.42;;;11.20;99.90;;;12.08;100.00;98055.84;5266082;28;20284;-60
2022/05/05 00:33:08;;;;;;;22.83;20.65;;;11.10;99.90;;;12.10;100.00;98054.25;5264294;28;20723;-61
2022/05/05 00:35:41;;;;;;;22.27;20.17;;;11.20;99.90;;;12.13;100.00;98046.72;5265721;28;20197;-61
2022/05/05 00:38:17;;;;;;;22.65;20.65;;;11.20;99.90;;;12.01;100.00;98048.59;5265875;28;20243;-61
2022/05/05 00:40:50;;;;;;;25.33;20.52;;;11.10;99.90;;;11.88;100.00;98048.75;5266458;28;20268;-61
2022/05/05 00:43:23;;;;;;;20.45;18.38;;;11.00;99.90;;;11.91;100.00;98048.91;5266253;28;20690;-61
2022/05/05 00:45:56;;;;;;;24.50;21.45;;;11.00;99.90;;;11.91;100.00;98051.47;5266321;28;20204;-61
2022/05/05 00:48:30;;;;;;;21.52;19.33;;;11.10;99.90;;;11.91;100.00;98056.59;5266259;28;20305;-61
2022/05/05 00:51:03;;;;;;;23.63;21.30;;;11.00;99.90;;;11.89;100.00;98058.19;5260128;28;20696;-61
2022/05/05 00:53:38;;;;;;;23.20;20.88;;;11.10;99.90;;;11.95;100.00;98055.97;5266460;28;20710;-61
2022/05/05 00:56:14;;;;;;;20.58;18.58;;;11.10;99.90;;;11.85;100.00;98051.13;5264908;28;20264;-61
2022/05/05 00:58:48;;;;;;;20.85;18.90;;;11.00;99.90;;;11.75;100.00;98044.59;5267027;28;20286;-61
2022/05/05 01:01:24;;;;;;;20.30;18.23;;;10.90;99.90;;;11.83;100.00;98039.91;5267880;28;20294;-61
2022/05/05 01:03:57;;;;;;;19.60;17.73;;;10.90;99.90;;;11.81;100.00;98038.91;5266215;28;20659;-61
2022/05/05 01:06:31;;;;;;;21.60;19.40;;;10.90;99.90;;;11.81;100.00;98044.03;5264973;28;20244;-61
2022/05/05 01:09:12;;;;;;;21.38;19.30;;;10.90;99.90;;;11.88;100.00;98038.50;5263506;28;20215;-60
2022/05/05 01:11:45;;;;;;;22.77;20.42;;;11.00;99.90;;;11.77;100.00;98031.88;5266275;28;20245;-61
2022/05/05 01:14:23;;;;;;;22.40;20.20;;;10.80;99.90;;;11.84;100.00;98037.41;5269114;28;20204;-61
2022/05/05 01:16:59;;;;;;;23.60;21.23;;;10.90;99.90;;;11.85;100.00;98033.19;5269075;28;20310;-61
2022/05/05 01:19:32;;;;;;;23.30;21.10;;;11.00;99.90;;;11.91;100.00;98042.09;5268009;28;20199;-61
2022/05/05 01:22:06;;;;;;;24.45;22.05;;;11.00;99.90;;;11.93;100.00;98047.28;5268054;28;20299;-61
2022/05/05 01:30:21;;;;;;;33.20;21.73;;;11.00;99.90;;;11.82;100.00;98045.81;5267539;28;20251;-61
2022/05/05 01:32:54;;;;;;;22.92;20.77;;;11.00;99.90;;;11.77;100.00;98052.38;5268837;28;20227;-61
2022/05/05 01:35:27;;;;;;;22.42;20.17;;;10.90;99.90;;;11.75;100.00;98053.94;5258502;28;20639;-61
2022/05/05 01:38:02;;;;;;;20.75;18.65;;;10.90;99.90;;;11.71;100.00;98058.91;5267931;28;20247;-60
2022/05/05 01:40:36;;;;;;;82.25;22.13;;;10.80;99.90;;;11.52;100.00;98055.22;5265812;28;20268;-61
2022/05/05 01:43:10;;;;;;;28.98;20.70;;;10.70;99.90;;;11.47;100.00;98060.06;5266896;28;20645;-61
2022/05/05 01:45:45;;;;;;;57.47;22.52;;;10.50;99.90;;;11.44;100.00;98067.59;5265870;28;20291;-61
2022/05/05 01:48:18;;;;;;;26.05;19.80;;;10.60;99.90;;;11.47;100.00;98070.31;5265933;28;20226;-61
2022/05/05 01:50:51;;;;;;;21.52;19.52;;;10.60;99.90;;;11.44;100.00;98077.81;5265239;28;20220;-61
2022/05/05 01:53:26;;;;;;;19.52;17.67;;;10.60;99.90;;;11.56;100.00;98073.41;5265022;28;20235;-61
2022/05/05 01:55:59;;;;;;;54.17;21.50;;;10.70;99.90;;;11.51;100.00;98069.72;5265246;28;20310;-60
2022/05/05 01:58:32;;;;;;;70.22;20.58;;;10.70;99.90;;;11.50;100.00;98078.16;5263522;28;20326;-60
2022/05/05 02:01:06;;;;;;;19.98;18.05;;;10.60;99.90;;;11.51;100.00;98072.28;5265933;28;20286;-61
2022/05/05 02:03:40;;;;;;;44.20;19.52;;;10.60;99.90;;;11.53;100.00;98062.97;5264542;28;20199;-60
2022/05/05 02:06:15;;;;;;;17.95;16.40;;;10.60;99.90;;;11.53;100.00;98062.09;5266333;28;20269;-61
2022/05/05 02:08:50;;;;;;;32.33;18.02;;;10.60;99.90;;;11.44;100.00;98071.00;5266510;28;20730;-61
2022/05/05 02:11:23;;;;;;;35.17;17.52;;;10.50;99.90;;;11.39;100.00;98064.78;5260943;28;20202;-61
2022/05/05 02:13:56;;;;;;;35.10;17.02;;;10.50;99.90;;;11.30;100.00;98064.22;5257248;28;20196;-61
2022/05/05 02:16:29;;;;;;;17.55;15.75;;;10.30;99.90;;;11.23;100.00;98065.56;5264588;28;20216;-61
2022/05/05 02:19:02;;;;;;;17.38;14.98;;;10.20;99.90;;;11.22;100.00;98066.38;5265228;28;20204;-61
2022/05/05 02:21:35;;;;;;;16.95;15.43;;;10.30;99.90;;;11.22;100.00;98071.47;5265652;28;20235;-61
2022/05/05 02:24:10;;;;;;;16.23;14.52;;;10.20;99.90;;;11.15;100.00;98074.47;5264602;28;20235;-61
2022/05/05 02:26:43;;;;;;;16.73;14.88;;;10.10;99.90;;;11.10;100.00;98070.75;5267058;28;20298;-61
2022/05/05 02:29:16;;;;;;;18.48;16.27;;;10.10;99.90;;;10.98;100.00;98072.59;5266170;28;20251;-61
2022/05/05 02:31:49;;;;;;;16.75;15.23;;;10.20;99.90;;;10.98;100.00;98073.47;5263295;28;20894;-61
2022/05/05 02:34:22;;;;;;;28.40;15.02;;;10.00;99.90;;;10.96;100.00;98072.53;5266513;28;20721;-61
2022/05/05 02:39:50;;;;;;;16.95;15.45;;;10.00;99.90;;;11.01;100.00;98077.91;5236070;28;20196;-61
2022/05/05 02:42:23;;;;;;;23.33;16.52;;;10.10;99.90;;;11.02;100.00;98072.00;5264672;28;20551;-61
2022/05/05 02:44:56;;;;;;;60.88;18.45;;;10.10;99.90;;;10.99;100.00;98074.38;5265382;28;20234;-61
2022/05/05 02:47:29;;;;;;;27.50;15.63;;;10.10;99.90;;;10.92;100.00;98073.13;5263675;28;20251;-61
2022/05/05 02:50:03;;;;;;;18.03;16.17;;;9.90;99.90;;;10.92;100.00;98068.00;5265861;28;20306;-60
2022/05/05 02:52:36;;;;;;;19.55;17.65;;;9.90;99.90;;;10.95;100.00;98074.97;5264884;28;20227;-60
2022/05/05 02:55:11;;;;;;;19.25;17.50;;;10.00;99.90;;;10.93;100.00;98074.91;5258641;28;20294;-61
2022/05/05 02:57:44;;;;;;;26.10;16.90;;;10.00;99.90;;;11.00;100.00;98081.25;5266547;28;20707;-61
2022/05/05 03:00:19;;;;;;;18.42;16.63;;;10.10;99.90;;;11.00;100.00;98068.47;5263696;28;20295;-60
2022/05/05 03:02:52;;;;;;;18.60;16.58;;;10.00;99.90;;;11.02;100.00;98072.00;5264551;28;20234;-59
2022/05/05 03:05:25;;;;;;;46.03;16.02;;;10.10;99.90;;;10.70;100.00;98073.53;5265234;28;20253;-60
2022/05/05 03:07:58;;;;;;;15.15;13.88;;;9.70;99.90;;;10.67;100.00;98075.00;5263619;28;20251;-60
2022/05/05 03:10:32;;;;;;;16.58;15.00;;;9.60;99.90;;;10.53;100.00;98080.19;5266286;28;20211;-59
2022/05/05 03:13:05;;;;;;;17.63;15.93;;;9.50;99.90;;;10.56;100.00;98076.94;5266282;28;20291;-58
2022/05/05 03:15:38;;;;;;;19.03;15.03;;;9.50;99.90;;;10.49;100.00;98087.56;5259690;28;20727;-60
2022/05/05 03:18:12;;;;;;;16.07;14.67;;;9.60;99.90;;;10.43;100.00;98085.53;5262533;28;20200;-58
2022/05/05 03:20:45;;;;;;;17.23;15.73;;;9.40;99.90;;;10.50;100.00;98089.31;5266482;28;20223;-61
2022/05/05 03:23:18;;;;;;;18.03;16.37;;;9.50;99.90;;;10.48;100.00;98085.81;5264069;28;20291;-61
2022/05/05 03:25:52;;;;;;;23.23;16.33;;;9.70;99.90;;;10.48;100.00;98088.38;5264470;28;20238;-60
2022/05/05 03:28:25;;;;;;;19.63;17.73;;;9.70;99.90;;;10.56;100.00;98089.72;5264628;28;20219;-61
2022/05/05 03:30:59;;;;;;;19.85;17.95;;;9.70;99.90;;;10.65;100.00;98095.38;5267079;28;20220;-60
2022/05/05 03:33:32;;;;;;;22.10;18.03;;;9.80;99.90;;;10.72;100.00;98094.06;5263224;28;20196;-60
2022/05/05 03:36:06;;;;;;;28.15;17.45;;;9.80;99.90;;;10.59;100.00;98098.44;5264558;28;20241;-60
2022/05/05 03:38:39;;;;;;;19.48;17.55;;;9.60;99.90;;;10.57;100.00;98097.47;5265770;28;20736;-60
2022/05/05 03:41:13;;;;;;;23.10;18.73;;;9.60;99.90;;;10.59;100.00;98098.44;5261679;28;20311;-61
2022/05/05 03:43:46;;;;;;;22.10;18.30;;;9.70;99.90;;;10.58;100.00;98098.34;5263792;28;20282;-60
2022/05/05 03:46:20;;;;;;;20.65;18.45;;;9.60;99.90;;;10.58;100.00;98098.34;5261697;28;20239;-61
2022/05/05 03:48:53;;;;;;;19.07;17.37;;;9.60;99.90;;;10.54;100.00;98098.97;5265673;28;20199;-61
2022/05/05 03:51:26;;;;;;;21.10;18.58;;;9.50;99.90;;;10.47;100.00;98099.34;5259977;28;22349;-61
2022/05/05 03:53:59;;;;;;;24.42;18.13;;;9.50;99.90;;;10.51;100.00;98111.56;5262613;28;20246;-61
2022/05/05 03:56:34;;;;;;;19.00;17.07;;;9.50;99.90;;;10.50;100.00;98109.75;5263724;28;20216;-60
2022/05/05 03:59:07;;;;;;;20.50;18.23;;;9.50;99.90;;;10.50;100.00;98112.31;5263393;28;20290;-61
2022/05/05 04:01:40;;;;;;;20.03;18.13;;;9.50;99.90;;;10.46;100.00;98110.38;5262076;28;20291;-61
2022/05/05 04:04:13;;;;;;;19.45;17.55;;;9.50;99.90;;;10.47;100.00;98104.47;5263484;28;20204;-61
2022/05/05 04:06:46;;;;;;;20.33;18.23;;;9.50;99.90;;;10.42;100.00;98113.56;5261921;28;20587;-61
2022/05/05 04:09:19;;;;;;;20.17;18.17;;;9.40;99.90;;;10.42;100.00;98111.00;5265852;28;20204;-59
2022/05/05 04:11:57;;;;;;;20.87;18.87;;;9.40;99.90;;;10.44;100.00;98104.28;5266181;28;20295;-61
2022/05/05 04:14:30;;;;;;;18.53;16.73;;;9.50;99.90;;;10.26;100.00;98104.00;5266218;28;20665;-61
2022/05/05 04:17:03;;;;;;;17.73;15.97;;;9.30;99.90;;;10.28;100.00;98105.03;5267101;28;20244;-60
2022/05/05 04:19:36;;;;;;;26.47;17.13;;;9.30;99.90;;;10.34;100.00;98111.38;5257278;28;20284;-60
2022/05/05 04:22:10;;;;;;;17.47;15.87;;;9.40;99.90;;;10.29;100.00;98110.22;5266390;28;20219;-61
2022/05/05 04:24:43;;;;;;;17.10;15.47;;;9.30;99.90;;;10.40;100.00;98118.56;5263174;28;20231;-60
2022/05/05 04:27:18;;;;;;;16.80;15.30;;;9.40;99.90;;;10.37;100.00;98113.25;5267070;28;20339;-61
2022/05/05 04:29:51;;;;;;;17.53;15.60;;;9.40;99.90;;;10.41;100.00;98111.75;5266709;28;20227;-59
2022/05/05 04:32:25;;;;;;;17.87;16.27;;;9.50;99.90;;;10.38;100.00;98127.78;5263924;28;20626;-59
2022/05/05 04:35:00;;;;;;;20.47;14.93;;;9.40;99.90;;;10.38;100.00;98131.22;5265544;28;20231;-61
2022/05/05 04:37:33;;;;;;;35.07;16.23;;;9.40;99.90;;;10.29;100.00;98140.00;5265249;28;20325;-60
2022/05/05 04:40:10;;;;;;;18.40;16.70;;;9.50;99.90;;;10.43;100.00;98140.84;5264106;28;20290;-62
2022/05/05 04:42:44;;;;;;;18.27;14.93;;;9.50;99.90;;;10.47;100.00;98136.03;5260198;28;20278;-61
2022/05/05 04:45:18;;;;;;;18.23;16.60;;;9.50;99.90;;;10.59;100.00;98130.81;5265097;28;20691;-60
2022/05/05 04:47:51;;;;;;;19.13;17.33;;;9.60;99.90;;;10.58;100.00;98129.88;5262451;28;20318;-60
2022/05/05 04:50:25;;;;;;;18.53;16.70;;;9.70;99.90;;;10.56;100.00;98122.94;5266428;28;20243;-60
2022/05/05 04:52:58;;;;;;;16.23;14.83;;;9.60;99.90;;;10.60;100.00;98127.44;5265633;28;20232;-61
2022/05/05 04:55:31;;;;;;;19.13;17.33;;;9.60;99.90;;;10.69;100.00;98133.09;5264755;28;20196;-60
2022/05/05 04:58:06;;;;;;;18.45;14.85;;;9.70;99.90;;;10.64;100.00;98128.50;5264730;28;20219;-60
2022/05/05 05:00:39;;;;;;;17.10;15.43;;;9.70;99.90;;;10.81;100.00;98131.28;5265352;28;20279;-61
2022/05/05 05:03:32;;;;;;;16.50;14.97;;;9.80;99.90;;;10.85;100.00;98129.81;5264255;28;20200;-60
2022/05/05 05:06:08;;;;;;;17.20;15.60;;;9.80;99.90;;;10.92;100.00;98125.94;5265979;28;20231;-57
2022/05/05 05:08:42;;;;;;;16.83;15.33;;;9.90;99.90;;;11.04;100.00;98136.91;5264114;28;20614;-59
2022/05/05 05:11:15;;;;;;;18.73;17.13;;;10.00;99.90;;;11.18;100.00;98132.59;5265434;28;20211;-58
2022/05/05 05:13:50;;;;;;;16.95;15.55;;;10.00;99.90;;;11.15;100.00;98128.19;5265934;28;20276;-58
2022/05/05 05:16:23;;;;;;;17.58;15.98;;;10.00;99.90;;;11.06;100.00;98130.22;5265246;28;20639;-59
2022/05/05 05:19:14;;;;;;;17.00;15.40;;;9.80;99.90;;;11.03;100.00;98125.78;5264865;28;20188;-60
2022/05/05 05:21:50;;;;;;;17.88;16.33;;;9.90;99.90;;;10.93;100.00;98132.81;5264793;28;20192;-59
2022/05/05 05:24:23;;;;;;;17.95;16.35;;;9.90;99.90;;;10.96;100.00;98133.00;5259306;28;20239;-60
2022/05/05 05:26:56;;;;;;;16.88;15.27;;;9.80;99.90;;;10.95;100.00;98136.34;5259390;28;20310;-60
2022/05/05 05:29:31;;;;;;;17.73;16.23;;;9.80;99.90;;;11.07;100.00;98141.31;5263792;28;20218;-63
2022/05/05 05:32:05;;;;;;;17.65;16.00;;;9.90;99.90;;;11.16;100.00;98145.31;5264265;28;20301;-60
2022/05/05 05:34:38;;;;;;;16.60;15.20;;;10.10;99.90;;;11.20;100.00;98139.59;5265764;28;20228;-60
2022/05/05 05:37:12;;;;;;;18.27;16.67;;;10.10;99.90;;;11.08;100.00;98141.41;5263143;28;20216;-60
2022/05/05 05:39:45;;;;;;;16.98;15.57;;;10.00;99.90;;;11.13;100.00;98140.03;5266383;28;20287;-59
2022/05/05 05:42:18;;;;;;;17.85;16.25;;;10.00;99.90;;;11.14;100.00;98139.22;5262998;28;20286;-60
2022/05/05 05:44:52;;;;;;;16.70;15.30;;;10.00;99.90;;;11.06;100.00;98140.44;5263492;28;20298;-58
2022/05/05 05:47:26;;;;;;;17.90;16.40;;;10.00;99.90;;;11.13;100.00;98132.34;5261498;28;20216;-58
2022/05/05 05:49:59;;;;;;;19.17;17.40;;;10.10;99.90;;;11.15;100.00;98138.41;5263053;28;20242;-59
2022/05/05 05:52:33;;;;;;;17.25;15.85;;;10.20;99.90;;;11.27;100.00;98146.84;5266356;28;20620;-60
2022/05/05 05:55:08;;;;;;;15.55;14.35;;;10.20;99.90;;;11.28;100.00;98147.72;5264073;28;20287;-60
2022/05/05 05:57:41;;;;;;;18.13;16.55;;;10.20;99.90;;;11.35;100.00;98137.03;5255701;28;20208;-60
2022/05/05 06:00:16;;;;;;;17.65;15.90;;;10.30;99.90;;;11.41;100.00;98149.31;5267110;28;20196;-57
2022/05/05 06:05:42;;;;;;;17.70;16.20;;;10.30;99.90;;;11.50;100.00;98165.19;5264625;28;20192;-59
2022/05/05 06:08:20;;;;;;;18.60;17.10;;;10.40;99.90;;;11.57;100.00;98167.34;5265309;28;20617;-60
2022/05/05 06:10:53;;;;;;;18.00;16.55;;;10.50;99.90;;;11.52;100.00;98171.28;5262277;28;20342;-60
2022/05/05 06:13:29;;;;;;;18.27;16.73;;;10.50;99.90;;;11.51;100.00;98169.53;5261088;28;20639;-60
2022/05/05 06:16:06;;;;;;;17.75;16.15;;;10.50;99.90;;;11.42;100.00;98166.44;5263281;28;20691;-60
2022/05/05 06:18:40;;;;;;;18.52;16.95;;;10.50;99.90;;;11.45;100.00;98171.75;5265490;28;20287;-60
2022/05/05 06:21:13;;;;;;;17.77;16.30;;;10.40;99.90;;;11.59;100.00;98178.56;5257415;28;20235;-59
2022/05/05 06:23:46;;;;;;;18.63;17.08;;;10.50;99.90;;;11.72;100.00;98175.00;5263704;28;20196;-59
2022/05/05 06:26:19;;;;;;;18.17;16.67;;;10.60;99.90;;;11.71;100.00;98176.69;5261873;28;20307;-60
2022/05/05 06:28:52;;;;;;;18.83;17.25;;;10.70;99.90;;;11.83;100.00;98175.63;5263158;28;20231;-59
2022/05/05 06:31:27;;;;;;;17.60;16.20;;;10.80;99.90;;;11.92;100.00;98171.06;5266620;28;20306;-59
2022/05/05 06:34:00;;;;;;;16.52;15.23;;;10.80;99.90;;;11.87;100.00;98173.34;5261121;28;20206;-60
2022/05/05 06:36:33;;;;;;;15.65;14.38;;;10.90;99.90;;;11.94;100.00;98179.72;5258437;28;20243;-60
2022/05/05 06:39:06;;;;;;;15.68;14.45;;;10.90;99.90;;;12.04;100.00;98181.09;5266895;28;20238;-60
2022/05/05 06:41:39;;;;;;;16.23;14.98;;;11.00;99.90;;;12.12;100.00;98185.88;5265787;28;20246;-60
2022/05/05 06:44:12;;;;;;;17.05;15.75;;;11.10;99.90;;;12.01;100.00;98186.94;5266720;28;20235;-60
2022/05/05 06:46:47;;;;;;;17.83;16.30;;;11.00;99.90;;;12.15;100.00;98185.16;5265393;28;20243;-59
2022/05/05 06:49:21;;;;;;;18.58;17.08;;;11.20;99.90;;;12.18;100.00;98191.34;5266312;28;20241;-59
2022/05/05 06:51:54;;;;;;;18.92;17.42;;;11.20;99.90;;;12.26;100.00;98188.34;5263563;28;20756;-60
2022/05/05 06:54:27;;;;;;;17.50;16.02;;;11.30;99.90;;;12.39;100.00;98193.34;5265920;28;20287;-60
2022/05/05 06:57:00;;;;;;;16.65;15.35;;;11.40;99.90;;;12.46;100.00;98198.00;5266112;28;20311;-60
2022/05/05 06:59:34;;;;;;;18.38;16.88;;;11.50;99.90;;;12.42;100.00;98201.22;5267298;28;20607;-58
2022/05/05 07:02:08;;;;;;;17.85;16.35;;;11.50;99.90;;;12.36;100.00;98198.28;5264206;28;20312;-60
2022/05/05 07:07:33;;;;;;;17.58;16.08;;;11.60;99.90;;;12.62;100.00;98194.59;5262338;28;20739;-60
2022/05/05 07:13:00;;;;;;;18.48;16.92;;;11.70;99.90;;;12.79;100.00;98201.53;5233720;28;20755;-56
2022/05/05 07:15:34;;;;;;;19.15;17.65;;;11.90;99.90;;;13.06;100.00;98209.81;5258838;28;20200;-60
2022/05/05 07:18:08;;;;;;;18.08;16.67;;;12.10;99.90;;;13.11;100.00;98212.63;5263350;28;20308;-59
2022/05/05 07:20:42;;;;;;;19.40;17.85;;;12.20;99.90;;;13.36;100.00;98212.22;5262564;28;20191;-58
2022/05/05 07:23:15;;;;;;;19.20;17.60;;;12.30;99.90;;;13.44;99.60;98213.50;5265779;28;20272;-58
2022/05/05 07:25:48;;;;;;;18.38;16.92;;;12.40;99.90;;;13.62;100.00;98220.38;5262772;28;20203;-57
2022/05/05 07:28:21;;;;;;;19.17;17.58;;;12.50;99.90;;;13.76;100.00;98227.09;5264143;28;20682;-58
2022/05/05 07:30:54;;;;;;;19.52;17.88;;;12.60;99.90;;;14.04;100.00;98211.38;5262566;28;20617;-58
2022/05/05 07:33:29;;;;;;;19.55;17.95;;;12.90;99.90;;;14.31;96.12;98214.41;5261650;28;20311;-57
2022/05/05 07:36:02;;;;;;;19.38;17.80;;;13.40;99.90;;;14.77;91.22;98211.47;5260465;28;20314;-59
2022/05/05 07:38:36;;;;;;;19.13;17.48;;;13.80;99.90;;;15.32;90.16;98211.38;5261342;28;20193;-58
2022/05/05 07:41:09;;;;;;;19.05;17.55;;;14.20;99.90;;;16.13;90.34;98208.81;5263645;28;20551;-58
2022/05/05 07:43:42;;;;;;;17.90;16.50;;;15.00;99.90;;;16.81;88.45;98216.69;5265139;28;20196;-57
2022/05/05 07:46:17;;;;;;;17.95;16.45;;;15.50;99.90;;;17.17;83.31;98208.53;5267493;28;20294;-58
2022/05/05 07:48:52;;;;;;;17.75;16.45;;;15.90;99.90;;;17.61;85.11;98209.28;5267957;28;20191;-57
2022/05/05 07:51:25;;;;;;;17.55;16.15;;;16.30;99.90;;;17.89;85.11;98209.41;5268656;28;20272;-58
2022/05/05 07:56:51;;;;;;;16.35;15.05;;;16.30;99.90;;;17.58;80.12;98214.34;5259784;28;20306;-56
2022/05/05 07:59:24;;;;;;;16.77;15.38;;;16.00;99.90;;;17.28;81.86;98214.97;5260028;28;20257;-58
2022/05/05 08:01:58;;;;;;;16.73;15.43;;;15.70;99.90;;;17.06;81.20;98214.19;5265989;28;20284;-57
2022/05/05 08:04:35;;;;;;;18.13;16.73;;;15.50;99.90;;;16.87;83.57;98219.50;5259653;28;20564;-55
2022/05/05 08:07:08;;;;;;;19.90;18.40;;;15.40;99.90;;;16.59;82.64;98220.97;5265323;28;20779;-53
2022/05/05 08:09:42;;;;;;;16.73;15.43;;;15.30;99.90;;;16.52;86.31;98224.13;5267960;28;20599;-57
2022/05/05 08:12:32;;;;;;;19.33;17.83;;;15.10;99.90;;;16.26;83.91;98219.66;5263878;28;20309;-56
2022/05/05 08:15:08;;;;;;;19.23;17.52;;;15.00;99.90;;;16.07;83.06;98223.16;5264384;28;20503;-57
2022/05/05 08:17:41;;;;;;;19.73;18.15;;;14.80;99.90;;;16.12;87.09;98219.97;5261712;28;20216;-53
2022/05/05 08:20:16;;;;;;;19.20;17.70;;;14.80;99.90;;;16.08;84.08;98220.66;5267693;28;20204;-57
2022/05/05 08:22:50;;;;;;;20.33;18.63;;;14.80;99.90;;;16.25;87.68;98218.75;5268176;28;20188;-57
2022/05/05 08:28:29;;;;;;;19.40;17.70;;;15.00;99.90;;;16.43;85.46;98218.63;5266596;28;20200;-54
2022/05/05 08:31:02;;;;;;;20.45;18.70;;;15.10;99.90;;;16.47;85.49;98229.94;5263074;28;20239;-57
2022/05/05 08:33:35;;;;;;;20.55;18.85;;;15.10;99.90;;;16.42;85.15;98222.91;5262163;28;20216;-56
2022/05/05 08:36:10;;;;;;;19.90;18.23;;;15.10;99.90;;;16.42;84.75;98232.31;5267461;28;20315;-56
2022/05/05 08:38:44;;;;;;;19.92;18.33;;;15.10;99.90;;;16.34;84.49;98236.28;5267413;28;20238;-57
2022/05/05 08:41:17;;;;;;;20.95;19.05;;;15.10;99.90;;;16.45;86.32;98247.91;5269357;28;20195;-56
2022/05/05 08:43:51;;;;;;;21.45;19.67;;;15.20;99.90;;;16.46;84.04;98244.53;5265646;28;20196;-57
2022/05/05 08:46:41;;;;;;;20.45;18.65;;;15.10;99.90;;;16.44;83.29;98241.00;5261548;28;20242;-53
2022/05/05 08:49:14;;;;;;;21.58;19.67;;;15.10;99.90;;;16.42;84.38;98242.63;5262304;28;20218;-56
2022/05/05 08:51:54;;;;;;;21.00;18.90;;;15.10;99.90;;;16.32;83.23;98243.09;5265690;28;20200;-54
2022/05/05 08:54:32;;;;;;;21.23;19.38;;;15.10;99.90;;;16.31;81.38;98244.81;5260948;28;20259;-56
2022/05/05 08:57:06;;;;;;;21.17;19.25;;;15.10;99.90;;;16.13;81.64;98247.50;5262732;28;20251;-57
2022/05/05 08:59:40;;;;;;;20.23;18.52;;;15.00;99.90;;;16.26;83.57;98248.91;5265831;28;20192;-53
2022/05/05 09:02:13;;;;;;;22.42;20.58;;;15.00;99.90;;;16.27;83.47;98253.22;5266462;28;20286;-57
2022/05/05 09:04:46;;;;;;;21.48;19.67;;;15.00;99.90;;;16.32;84.27;98251.72;5262646;28;20521;-55
2022/05/05 09:07:21;;;;;;;20.80;18.98;;;15.10;99.90;;;16.35;85.72;98250.97;5257827;28;20311;-56
2022/05/05 09:09:54;;;;;;;22.25;20.35;;;15.10;99.90;;;16.37;83.85;98249.34;5266153;28;20227;-53
2022/05/05 09:12:28;;;;;;;21.95;20.05;;;15.10;99.90;;;16.37;83.67;98249.34;5266031;28;20192;-56
2022/05/05 09:15:01;;;;;;;21.20;19.40;;;15.10;99.90;;;16.46;83.36;98254.88;5267014;28;20713;-56
2022/05/05 09:17:35;;;;;;;21.52;19.63;;;15.20;99.90;;;16.53;82.13;98246.53;5266587;28;20302;-55
2022/05/05 09:20:10;;;;;;;20.90;19.20;;;15.30;99.90;;;16.68;82.57;98241.09;5266540;28;20377;-54
2022/05/05 09:22:50;;;;;;;22.92;20.83;;;15.40;99.90;;;16.81;82.56;98247.66;5264352;28;20218;-55
2022/05/05 09:25:24;;;;;;;23.08;21.13;;;15.60;99.90;;;16.87;80.16;98247.91;5259983;28;20246;-55
2022/05/05 09:28:17;;;;;;;22.95;20.88;;;15.70;99.90;;;16.91;78.99;98249.75;5265210;28;20315;-53
2022/05/05 09:30:52;;;;;;;23.13;21.23;;;15.60;99.90;;;16.71;78.36;98251.56;5265602;28;20229;-58
2022/05/05 09:33:40;;;;;;;22.75;20.85;;;15.50;99.90;;;16.72;79.88;98245.56;5264799;28;20306;-55
2022/05/05 09:36:15;;;;;;;23.58;21.55;;;15.50;99.90;;;16.91;78.40;98251.47;5265017;28;20248;-55
2022/05/05 09:38:52;;;;;;;23.73;21.65;;;15.60;99.90;;;17.05;80.06;98253.78;5259696;28;20224;-57
2022/05/05 09:41:28;;;;;;;23.77;21.77;;;15.70;99.90;;;16.95;79.05;98256.81;5259965;28;20609;-55
2022/05/05 09:44:13;;;;;;;24.50;22.40;;;15.70;99.90;;;16.77;79.09;98262.16;5259308;28;20230;-54
2022/05/05 09:46:46;;;;;;;23.73;21.73;;;15.60;99.90;;;16.98;78.32;98267.25;5260869;28;20250;-55
2022/05/05 09:49:21;;;;;;;23.50;21.40;;;15.70;99.90;;;16.97;77.19;98265.50;5266229;28;20198;-57
2022/05/05 09:57:42;;;;;;;24.05;21.98;;;15.70;99.90;;;17.02;76.30;98274.28;5262877;28;20247;-55
2022/05/05 10:00:42;;;;;;;22.85;20.95;;;15.80;99.90;;;17.10;76.24;98267.72;5262592;28;21258;-53
2022/05/05 10:06:19;;;;;;;24.27;22.20;;;15.90;99.90;;;17.16;76.61;98281.69;5263073;28;20731;-55
2022/05/05 10:09:03;;;;;;;23.00;20.88;;;16.10;99.90;;;17.28;75.59;98287.31;5258015;28;20497;-55
2022/05/05 10:11:38;;;;;;;24.42;22.15;;;16.10;99.90;;;17.42;74.32;98280.97;5262767;28;20692;-56
2022/05/05 10:14:16;;;;;;;24.95;22.88;;;16.20;99.90;;;17.49;74.33;98282.09;5261630;28;20251;-56
2022/05/05 10:16:50;;;;;;;22.02;20.13;;;16.30;99.90;;;17.48;74.55;98285.47;5264719;28;20756;-57
2022/05/05 10:19:23;;;;;;;23.90;21.83;;;16.30;99.90;;;17.59;74.48;98276.41;5262589;28;20196;-56
2022/05/05 10:22:05;;;;;;;24.33;22.15;;;16.30;99.90;;;17.61;73.91;98276.47;5261875;28;20298;-58
2022/05/05 10:24:44;;;;;;;24.25;22.08;;;16.30;99.90;;;17.73;72.90;98276.91;5258334;28;20291;-58
2022/05/05 10:27:19;;;;;;;23.73;21.73;;;16.50;99.90;;;17.65;73.16;98274.03;5259570;28;20303;-57
2022/05/05 10:29:52;;;;;;;23.75;21.75;;;16.60;99.90;;;17.66;72.40;98269.78;5261312;28;20290;-57
2022/05/05 10:32:28;;;;;;;23.25;21.15;;;16.60;99.90;;;17.78;71.98;98270.22;5263152;28;20228;-58
2022/05/05 10:35:21;;;;;;;23.05;21.15;;;16.70;99.90;;;17.84;70.51;98262.69;5261570;28;20215;-56
2022/05/05 10:37:54;;;;;;;21.60;19.83;;;16.60;99.90;;;17.89;72.22;98258.56;5258535;28;20247;-56
2022/05/05 10:40:44;;;;;;;23.55;21.55;;;16.70;99.90;;;18.05;72.02;98267.72;5264131;28;20288;-53
2022/05/05 10:43:32;;;;;;;23.08;21.15;;;16.90;99.90;;;18.22;70.02;98257.94;5264214;28;20196;-57
2022/05/05 10:46:57;;;;;;;21.88;20.05;;;17.00;99.90;;;18.44;68.89;98254.34;5261242;28;20256;-56
2022/05/05 10:49:50;;;;;;;21.25;19.55;;;17.30;99.90;;;18.51;69.11;98266.66;5258435;28;20199;-56
2022/05/05 10:52:31;;;;;;;22.92;21.13;;;17.20;99.90;;;18.46;68.97;98256.16;5261278;28;20239;-56
2022/05/05 10:55:28;;;;;;;22.35;20.55;;;17.30;99.90;;;18.58;67.13;98254.78;5257006;28;20220;-57
2022/05/05 10:58:58;;;;;;;21.80;20.10;;;17.30;99.90;;;18.41;66.71;98249.94;5253225;28;20211;-56
2022/05/05 11:01:58;;;;;;;20.30;18.70;;;17.30;99.90;;;18.39;67.88;98253.31;5263389;28;20245;-56
2022/05/05 11:04:33;;;;;;;20.25;18.65;;;17.30;99.90;;;18.37;67.25;98245.50;5263623;28;20207;-56
2022/05/05 11:07:30;;;;;;;21.88;20.08;;;17.20;99.90;;;18.42;66.91;98248.22;5260778;28;20223;-56
2022/05/05 11:10:08;;;;;;;21.90;20.10;;;17.20;99.90;;;18.44;65.11;98244.00;5261487;28;20648;-55
2022/05/05 11:12:41;;;;;;;20.58;18.92;;;17.20;99.90;;;18.41;67.17;98251.66;5262393;28;20600;-56